Miami, Florida
Traffic Map
Current Weather Conditions
Miami, Florida
Scattered Clouds
Scattered Clouds
79°
Feels Like: 82°
Wind Chill: 79° Ceiling: Unl
Heat Index: 82° Visibility: 10mi
Dew Point: 70° Wind: 7mph
Humidity: 74% Direction: 50° (NE)
Pressure: 30.03in Gusts: 0mph
Raw Report DataKMIA 220453Z 05006KT 10SM FEW027 SCT070 SCT250 26/21 A3003 RMK AO2 SLP167 T02610211 403280239
Traffic Incident Summary
Active as of:
Severity:
Category:
InformationThere was an issue retrieving the traffic information for this location. Please try a different location or try again shortly.
Advertisements